Time;durP1;ratioP1;P1;durP2;ratioP2;P2;SDS_P1;SDS_P2;PMS_P1;PMS_P2;Temp;Humidity;BMP_temperature;BMP_pressure;BME280_temperature;BME280_humidity;BME280_pressure;Samples;Min_cycle;Max_cycle;Signal;HPM_P1;HPM_P2
2022/07/26 00:01:48;;;;;;;2.83;0.52;;;18.10;99.90;;;;;;6183976;23;20025;-84
2022/07/26 00:04:14;;;;;;;3.60;0.70;;;18.10;99.90;;;;;;6184009;23;20107;-84
2022/07/26 00:06:40;;;;;;;3.85;0.57;;;18.10;99.90;;;;;;6183770;23;20027;-84
2022/07/26 00:09:06;;;;;;;1.88;0.50;;;18.10;99.90;;;;;;6185708;23;20020;-84
2022/07/26 00:11:32;;;;;;;3.58;0.57;;;18.10;99.90;;;;;;6159734;23;20063;-84
2022/07/26 00:14:04;;;;;;;1.65;0.50;;;18.10;99.90;;;;;;6158990;23;20021;-84
2022/07/26 00:16:30;;;;;;;3.35;0.60;;;18.10;99.90;;;;;;6185796;23;20052;-84
2022/07/26 00:18:56;;;;;;;5.13;0.60;;;18.10;99.90;;;;;;6184224;23;20009;-85
2022/07/26 00:21:23;;;;;;;3.38;0.50;;;18.10;99.90;;;;;;6183090;23;20021;-85
2022/07/26 00:23:49;;;;;;;3.03;0.50;;;18.10;99.90;;;;;;6184182;23;20017;-85
2022/07/26 00:26:15;;;;;;;1.48;0.38;;;18.10;99.90;;;;;;6183996;23;20017;-85
2022/07/26 00:28:41;;;;;;;5.45;0.70;;;18.10;99.90;;;;;;6185357;23;20063;-85
2022/07/26 00:31:13;;;;;;;2.65;0.77;;;18.10;99.90;;;;;;6184147;23;20017;-86
2022/07/26 00:33:39;;;;;;;2.28;0.40;;;18.20;99.90;;;;;;6183862;23;20107;-86
2022/07/26 00:36:06;;;;;;;3.08;0.45;;;18.10;99.90;;;;;;6183203;23;20056;-85
2022/07/26 00:38:32;;;;;;;0.85;0.30;;;18.10;99.90;;;;;;6184064;23;20009;-86
2022/07/26 00:40:58;;;;;;;4.20;0.52;;;18.20;99.90;;;;;;6183878;23;20028;-86
2022/07/26 00:43:24;;;;;;;2.47;0.38;;;18.10;99.90;;;;;;6158766;23;20045;-85
2022/07/26 00:45:50;;;;;;;1.75;0.30;;;18.20;99.90;;;;;;6185845;23;20028;-83
2022/07/26 00:48:16;;;;;;;1.33;0.40;;;18.20;99.90;;;;;;6184164;23;20049;-84
2022/07/26 00:50:42;;;;;;;0.63;0.25;;;18.10;99.90;;;;;;6183305;23;20432;-84
2022/07/26 00:53:08;;;;;;;2.42;0.30;;;18.10;99.90;;;;;;6185645;23;20028;-85
2022/07/26 00:55:34;;;;;;;1.05;0.40;;;18.10;99.90;;;;;;6183224;23;20025;-84
2022/07/26 00:58:01;;;;;;;1.00;0.30;;;18.10;99.90;;;;;;6182979;23;20100;-85
2022/07/26 01:00:27;;;;;;;3.22;0.82;;;18.10;99.90;;;;;;6183631;23;20023;-85
2022/07/26 01:02:54;;;;;;;1.33;0.40;;;18.10;99.90;;;;;;6183493;23;20498;-85
2022/07/26 01:05:22;;;;;;;1.77;0.60;;;18.00;99.90;;;;;;6182762;23;20021;-84
2022/07/26 01:07:48;;;;;;;1.75;0.45;;;18.10;99.90;;;;;;6185266;23;20379;-85
2022/07/26 01:10:15;;;;;;;1.13;0.40;;;18.10;99.90;;;;;;6184872;23;20048;-85
2022/07/26 01:12:42;;;;;;;2.63;0.40;;;18.00;99.90;;;;;;6184914;23;20397;-85
2022/07/26 01:15:10;;;;;;;1.00;0.45;;;18.00;99.90;;;;;;6185131;23;20139;-86
2022/07/26 01:17:36;;;;;;;1.23;0.35;;;18.00;99.90;;;;;;6183357;23;20348;-84
2022/07/26 01:20:03;;;;;;;0.73;0.20;;;18.00;99.90;;;;;;6184957;23;20343;-85
2022/07/26 01:22:29;;;;;;;1.75;0.43;;;18.00;99.90;;;;;;6183008;23;20021;-86
2022/07/26 01:24:55;;;;;;;0.70;0.30;;;18.00;99.90;;;;;;6183292;23;20443;-85
2022/07/26 01:27:20;;;;;;;1.08;0.30;;;18.00;99.90;;;;;;6185207;23;20074;-85
2022/07/26 01:29:46;;;;;;;1.27;0.50;;;18.00;99.90;;;;;;6183486;23;20348;-85
2022/07/26 01:32:13;;;;;;;0.30;0.30;;;18.00;99.90;;;;;;6183568;23;20017;-85
2022/07/26 01:34:39;;;;;;;0.68;0.30;;;18.00;99.90;;;;;;6183385;23;20343;-85
2022/07/26 01:37:04;;;;;;;0.88;0.43;;;18.00;99.90;;;;;;6183180;23;20023;-85
2022/07/26 01:39:30;;;;;;;1.95;0.40;;;18.00;99.90;;;;;;6183499;23;20025;-84
2022/07/26 01:41:56;;;;;;;0.98;0.40;;;18.00;99.90;;;;;;6184990;23;20059;-85
2022/07/26 01:44:22;;;;;;;0.88;0.30;;;18.00;99.90;;;;;;6184785;23;20021;-85
2022/07/26 01:46:48;;;;;;;1.15;0.30;;;18.00;99.90;;;;;;6183313;23;20075;-85
2022/07/26 01:49:14;;;;;;;1.45;0.40;;;18.00;99.90;;;;;;6183176;23;20024;-85
2022/07/26 01:51:40;;;;;;;2.80;0.30;;;18.00;99.90;;;;;;6184519;23;20303;-84
2022/07/26 01:54:06;;;;;;;1.58;0.40;;;18.00;99.90;;;;;;6183561;23;20017;-85
2022/07/26 01:56:42;;;;;;;1.95;0.50;;;18.00;99.90;;;;;;6183099;23;20036;-86
2022/07/26 01:59:07;;;;;;;2.72;0.40;;;18.20;99.90;;;;;;6183237;23;20063;-84
2022/07/26 02:01:33;;;;;;;2.65;0.50;;;18.00;99.90;;;;;;6184887;23;20025;-85
2022/07/26 02:03:59;;;;;;;0.90;0.35;;;18.00;99.90;;;;;;6184881;23;20013;-85
2022/07/26 02:06:25;;;;;;;2.83;0.30;;;18.00;99.90;;;;;;6184731;23;20017;-84
2022/07/26 02:08:51;;;;;;;0.50;0.40;;;18.00;99.90;;;;;;6183105;23;20021;-85
2022/07/26 02:11:17;;;;;;;2.60;0.40;;;18.00;99.90;;;;;;6182567;23;20084;-85
2022/07/26 02:17:35;;;;;;;2.78;0.60;;;17.90;99.90;;;;;;6182703;23;20017;-88
2022/07/26 02:20:09;;;;;;;3.45;0.88;;;18.10;99.90;;;;;;6182626;23;20021;-86
2022/07/26 02:22:35;;;;;;;1.85;0.80;;;17.90;99.90;;;;;;6182628;23;20345;-86
2022/07/26 02:25:03;;;;;;;2.80;0.60;;;18.00;99.90;;;;;;6184307;23;20100;-88
2022/07/26 02:27:29;;;;;;;2.75;0.50;;;17.90;99.90;;;;;;6184603;23;20080;-88
2022/07/26 02:29:55;;;;;;;8.90;1.00;;;17.80;99.90;;;;;;6158258;23;20021;-88
2022/07/26 02:32:20;;;;;;;3.20;0.60;;;17.80;99.90;;;;;;6184627;23;20031;-88
2022/07/26 02:34:46;;;;;;;4.78;0.85;;;17.70;99.90;;;;;;6184803;23;20021;-85
2022/07/26 02:37:12;;;;;;;4.43;0.82;;;17.60;99.90;;;;;;6184273;23;20088;-85
2022/07/26 02:39:38;;;;;;;6.70;0.90;;;17.60;99.90;;;;;;6182821;23;20033;-85
2022/07/26 02:42:03;;;;;;;5.50;0.65;;;17.60;99.90;;;;;;6158379;23;20021;-85
2022/07/26 02:44:29;;;;;;;3.80;0.63;;;17.50;99.90;;;;;;6158077;23;20098;-85
2022/07/26 02:46:55;;;;;;;3.00;0.70;;;17.50;99.90;;;;;;6157783;23;20077;-87
2022/07/26 02:49:21;;;;;;;4.18;0.63;;;17.40;99.90;;;;;;6182725;23;20352;-86
2022/07/26 02:51:47;;;;;;;5.68;0.57;;;17.50;99.90;;;;;;6182781;23;20075;-87
2022/07/26 02:54:13;;;;;;;2.75;1.17;;;17.50;99.90;;;;;;6184626;23;20091;-86
2022/07/26 02:56:39;;;;;;;2.40;0.60;;;17.40;99.90;;;;;;6182579;23;20400;-86
2022/07/26 02:59:08;;;;;;;2.63;0.63;;;17.30;99.90;;;;;;6182658;23;20085;-88
2022/07/26 03:01:34;;;;;;;1.38;0.35;;;17.40;99.90;;;;;;6182860;23;20017;-85
2022/07/26 03:04:01;;;;;;;3.47;0.63;;;17.30;99.90;;;;;;6182813;23;20021;-84
2022/07/26 03:06:26;;;;;;;6.85;0.63;;;17.20;99.90;;;;;;6182557;23;20021;-83
2022/07/26 03:08:52;;;;;;;3.47;0.40;;;17.30;99.90;;;;;;6158287;23;20092;-85
2022/07/26 03:11:18;;;;;;;5.03;0.40;;;17.20;99.90;;;;;;6184675;23;20088;-85
2022/07/26 03:13:43;;;;;;;0.90;0.20;;;17.10;99.90;;;;;;6184773;23;20021;-85
2022/07/26 03:16:10;;;;;;;2.85;0.30;;;17.00;99.90;;;;;;6184663;23;20313;-84
2022/07/26 03:18:35;;;;;;;1.02;0.20;;;17.10;99.90;;;;;;6184193;23;20021;-85
2022/07/26 03:21:01;;;;;;;0.98;0.10;;;17.00;99.90;;;;;;6182441;23;20028;-85
2022/07/26 03:23:27;;;;;;;0.60;0.20;;;17.00;99.90;;;;;;6184513;23;20115;-84
2022/07/26 03:25:53;;;;;;;2.30;0.30;;;17.00;99.90;;;;;;6182495;23;20021;-85
2022/07/26 03:28:19;;;;;;;2.50;0.30;;;17.00;99.90;;;;;;6182991;23;20091;-85
2022/07/26 03:30:44;;;;;;;2.30;0.30;;;17.00;99.90;;;;;;6183085;23;20386;-85
2022/07/26 03:33:12;;;;;;;3.75;0.47;;;17.00;99.90;;;;;;6184034;23;20515;-84
2022/07/26 03:35:38;;;;;;;2.05;0.22;;;17.00;99.90;;;;;;6183657;23;20021;-84
2022/07/26 03:38:04;;;;;;;1.60;0.10;;;17.00;99.90;;;;;;6186446;23;20024;-84
2022/07/26 03:40:30;;;;;;;0.85;0.40;;;16.90;99.90;;;;;;6186391;23;20013;-84
2022/07/26 03:42:55;;;;;;;0.35;0.20;;;16.90;99.90;;;;;;6184323;23;20044;-84
2022/07/26 03:45:21;;;;;;;0.68;0.20;;;16.90;99.90;;;;;;6184408;23;20352;-84
2022/07/26 03:47:47;;;;;;;1.35;0.20;;;16.80;99.90;;;;;;6186063;23;20028;-83
2022/07/26 03:50:13;;;;;;;2.92;0.40;;;16.80;99.90;;;;;;6186040;23;20024;-84
2022/07/26 03:52:39;;;;;;;1.25;0.20;;;16.90;99.90;;;;;;6184772;23;20056;-84
2022/07/26 03:56:27;;;;;;;1.33;0.15;;;16.80;99.90;;;;;;6183858;23;20471;-84
2022/07/26 03:57:51;;;;;;;1.50;0.73;;;16.80;99.90;;;;;;6186010;23;20029;-85
2022/07/26 04:00:17;;;;;;;1.42;0.20;;;16.80;99.90;;;;;;6184300;23;20017;-85
2022/07/26 04:02:43;;;;;;;2.75;0.30;;;16.80;99.90;;;;;;6186134;23;20049;-86
2022/07/26 04:05:10;;;;;;;0.13;0.10;;;16.80;99.90;;;;;;6184086;23;20017;-86
2022/07/26 04:07:45;;;;;;;1.85;0.25;;;16.80;99.90;;;;;;6183852;23;20036;-85
2022/07/26 04:10:12;;;;;;;1.40;0.30;;;16.70;99.90;;;;;;6184533;23;20092;-85
2022/07/26 04:12:38;;;;;;;4.70;0.22;;;16.80;99.90;;;;;;6185380;23;20048;-86
2022/07/26 04:15:05;;;;;;;3.80;0.28;;;16.80;99.90;;;;;;6185684;23;20021;-85
2022/07/26 04:17:39;;;;;;;1.52;0.10;;;16.70;99.90;;;;;;6184442;23;20060;-86
2022/07/26 04:20:06;;;;;;;1.52;0.73;;;16.70;99.90;;;;;;6185351;23;20028;-86
2022/07/26 04:22:34;;;;;;;2.53;0.50;;;16.70;99.90;;;;;;6183657;23;20029;-84
2022/07/26 04:25:00;;;;;;;2.22;0.22;;;16.80;99.90;;;;;;6185925;23;20013;-86
2022/07/26 04:27:26;;;;;;;3.50;0.30;;;16.70;99.90;;;;;;6183945;23;20083;-85
2022/07/26 04:29:51;;;;;;;6.30;0.35;;;16.70;99.90;;;;;;6183790;23;20009;-86
2022/07/26 04:32:17;;;;;;;2.17;0.20;;;16.70;99.90;;;;;;6185676;23;20012;-85
2022/07/26 04:34:43;;;;;;;1.00;0.20;;;16.60;99.90;;;;;;6185250;23;20021;-85
2022/07/26 04:37:08;;;;;;;4.10;0.22;;;16.60;99.90;;;;;;6183827;23;20100;-86
2022/07/26 04:39:34;;;;;;;1.02;0.10;;;16.60;99.90;;;;;;6185299;23;20020;-85
2022/07/26 04:42:00;;;;;;;3.15;0.40;;;16.50;99.90;;;;;;6185715;23;20021;-86
2022/07/26 04:44:25;;;;;;;3.00;0.25;;;16.70;99.90;;;;;;6185556;23;20036;-85
2022/07/26 04:46:51;;;;;;;2.28;0.20;;;16.70;99.90;;;;;;6183933;23;20332;-85
2022/07/26 04:49:17;;;;;;;1.63;0.20;;;16.80;99.90;;;;;;6184060;23;20021;-85
2022/07/26 04:51:43;;;;;;;1.00;0.10;;;16.60;99.90;;;;;;6185494;23;20024;-85
2022/07/26 04:54:08;;;;;;;2.72;0.10;;;16.60;99.90;;;;;;6185463;23;20017;-86
2022/07/26 04:56:34;;;;;;;1.48;0.30;;;16.60;99.90;;;;;;6184008;23;20053;-84
2022/07/26 04:59:00;;;;;;;0.40;0.10;;;16.60;99.90;;;;;;6185156;23;20048;-85
2022/07/26 05:01:25;;;;;;;0.73;0.10;;;16.60;99.90;;;;;;6184046;23;20032;-85
2022/07/26 05:03:51;;;;;;;2.08;0.20;;;16.60;99.90;;;;;;6185344;23;20020;-85
2022/07/26 05:06:17;;;;;;;1.67;0.20;;;16.60;99.90;;;;;;6185216;23;20316;-84
2022/07/26 05:08:42;;;;;;;0.35;0.10;;;16.60;99.90;;;;;;6183437;23;20099;-84
2022/07/26 05:11:10;;;;;;;0.45;0.10;;;16.60;99.90;;;;;;6183432;23;20021;-84
2022/07/26 05:13:35;;;;;;;0.60;0.10;;;16.60;99.90;;;;;;6183398;23;20025;-85
2022/07/26 05:16:01;;;;;;;1.15;0.13;;;16.60;99.90;;;;;;6183845;23;20369;-84
2022/07/26 05:18:28;;;;;;;0.20;0.10;;;16.60;99.90;;;;;;6183288;23;20021;-84
2022/07/26 05:20:54;;;;;;;0.45;0.10;;;16.60;99.90;;;;;;6183243;23;20024;-85
2022/07/26 05:23:20;;;;;;;0.55;0.30;;;16.60;99.90;;;;;;6183485;23;20021;-84
2022/07/26 05:25:46;;;;;;;1.60;0.20;;;16.70;99.90;;;;;;6185630;23;20330;-85
2022/07/26 05:28:11;;;;;;;3.05;0.22;;;16.60;99.90;;;;;;6183458;23;20025;-84
2022/07/26 05:30:37;;;;;;;3.03;0.30;;;16.50;99.90;;;;;;6183405;23;20036;-85
2022/07/26 05:33:03;;;;;;;2.33;0.20;;;16.50;99.90;;;;;;6183569;23;20024;-87
2022/07/26 05:35:29;;;;;;;0.38;0.10;;;16.50;99.90;;;;;;6158479;23;20021;-86
2022/07/26 05:37:55;;;;;;;1.25;0.10;;;16.60;99.90;;;;;;6183585;23;20151;-86
2022/07/26 05:40:21;;;;;;;2.67;0.15;;;16.40;99.90;;;;;;6185060;23;20156;-85
2022/07/26 05:42:47;;;;;;;0.55;0.20;;;16.40;99.90;;;;;;6183290;23;20325;-85
2022/07/26 05:45:13;;;;;;;0.75;0.10;;;16.40;99.90;;;;;;6158449;23;20083;-85
2022/07/26 05:47:39;;;;;;;0.82;0.25;;;16.40;99.90;;;;;;6183178;23;20071;-87
2022/07/26 05:50:05;;;;;;;2.10;0.28;;;16.50;99.90;;;;;;6184103;23;20016;-84
2022/07/26 08:23:43;;;;;;;2.97;0.47;;;18.30;99.90;;;;;;6171651;22;20028;31
2022/07/26 08:40:36;;;;;;;2.90;0.40;;;18.80;99.90;;;;;;6185120;22;20028;-86
2022/07/26 08:43:12;;;;;;;4.53;0.35;;;18.80;99.90;;;;;;6215713;23;20343;-85
2022/07/26 08:46:24;;;;;;;3.35;0.47;;;18.90;99.90;;;;;;6189367;23;20024;-85
2022/07/26 08:52:23;;;;;;;2.47;0.40;;;19.10;99.90;;;;;;6158959;23;20017;-84
2022/07/26 08:55:28;;;;;;;5.63;0.45;;;19.00;99.90;;;;;;6180574;23;20051;-86
2022/07/26 08:58:23;;;;;;;5.40;1.17;;;19.00;99.90;;;;;;6036814;23;20027;-85
2022/07/26 09:01:33;;;;;;;4.03;0.50;;;18.80;99.90;;;;;;6013202;23;20023;-86
2022/07/26 09:04:35;;;;;;;6.47;0.60;;;18.60;99.90;;;;;;6036950;23;20483;-85
2022/07/26 09:07:47;;;;;;;4.57;0.98;;;18.80;99.90;;;;;;6011720;23;20106;-85
2022/07/26 09:11:17;;;;;;;4.65;0.43;;;19.20;99.90;;;;;;5870467;24;20064;-85
2022/07/26 09:18:37;;;;;;;3.45;0.55;;;18.80;99.90;;;;;;5717040;25;20022;-86
2022/07/26 09:21:45;;;;;;;2.75;0.40;;;19.60;99.90;;;;;;5640892;25;20030;-85
2022/07/26 09:24:39;;;;;;;;;;;19.40;99.90;;;;;;5641792;25;20024;-88
2022/07/26 09:33:10;;;;;;;9.38;0.90;;;19.10;99.90;;;;;;4430375;27;21095924;-86
2022/07/26 09:40:00;;;;;;;7.72;0.82;;;18.70;99.90;;;;;;5067873;28;20515;-86
2022/07/26 09:46:57;;;;;;;;;;;18.70;99.90;;;;;;5067977;28;20136;-86
2022/07/26 09:56:34;;;;;;;;;;;;;;;;;;;;;
2022/07/26 10:02:58;;;;;;;3.20;0.45;;;19.10;99.90;;;;;;4952204;28;20063;-86
2022/07/26 10:06:31;;;;;;;;;;;;;;;;;;;;;
2022/07/26 10:11:41;;;;;;;;;;;19.30;99.90;;;;;;5204367;23;20053;-85
2022/07/26 10:24:14;;;;;;;;;;;;;;;;;;;;;
2022/07/26 10:33:47;;;;;;;4.47;0.47;;;19.30;99.90;;;;;;5093806;23;20052;-87
2022/07/26 10:36:56;;;;;;;4.50;0.85;;;19.80;99.90;;;;;;5088207;22;20054;-87
2022/07/26 10:54:34;;;;;;;;;;;;;;;;;;;;;
2022/07/26 11:26:38;;;;;;;;;;;;;;;;;;;;;
2022/07/26 12:00:36;;;;;;;3.83;0.32;;;21.70;94.70;;;;;;4810443;24;20043;-87
2022/07/26 12:03:44;;;;;;;2.55;0.38;;;21.60;95.40;;;;;;4769360;30;20047;-88
2022/07/26 12:07:03;;;;;;;3.45;0.40;;;21.50;95.90;;;;;;4751856;30;20068;-86
2022/07/26 12:43:53;;;;;;;;;;;;;;;;;;;;;
2022/07/26 12:46:46;;;;;;;;;;;;;;;;;;;;;
2022/07/26 13:14:58;;;;;;;4.78;0.30;;;21.50;95.00;;;;;;5278279;24;20267;-87
2022/07/26 13:58:52;;;;;;;0.98;0.32;;;21.90;91.90;;;;;;4824861;24;20060;-87
2022/07/26 14:01:18;;;;;;;4.95;0.30;;;21.70;91.60;;;;;;4703819;30;20138;-85
2022/07/26 14:04:15;;;;;;;3.10;0.25;;;21.60;91.80;;;;;;4707441;30;20420;-86
2022/07/26 14:11:07;;;;;;;2.30;0.30;;;21.70;91.10;;;;;;4713242;30;20047;-89
2022/07/26 14:31:25;;;;;;;1.35;0.20;;;21.60;90.60;;;;;;4991796;24;20513;-87
2022/07/26 14:44:35;;;;;;;2.60;0.25;;;21.60;91.70;;;;;;4679383;30;20101;-89
2022/07/26 15:17:45;;;;;;;1.42;0.20;;;20.40;94.20;;;;;;4902560;24;20064;-86
2022/07/26 15:20:46;;;;;;;0.85;0.10;;;20.50;94.80;;;;;;4703851;24;20058;-91
2022/07/26 15:23:22;;;;;;;0.55;0.10;;;20.60;94.50;;;;;;4626784;30;20129;-85
2022/07/26 17:09:21;;;;;;;0.55;0.13;;;19.00;96.90;;;;;;2035620;24;20813;-87
2022/07/26 17:53:41;;;;;;;;;;;;;;;;;;;;;
2022/07/26 18:35:35;;;;;;;0.20;0.20;;;17.60;99.90;;;;;;4884041;24;20069;-86
2022/07/26 18:45:03;;;;;;;1.13;0.30;;;17.20;99.90;;;;;;5530522;24;20078;-88
2022/07/26 20:09:20;;;;;;;1.08;0.20;;;16.50;99.90;;;;;;4561094;28;20104;-87
2022/07/26 20:12:22;;;;;;;0.73;0.20;;;16.50;99.90;;;;;;4708221;30;20061;-87
2022/07/26 20:15:15;;;;;;;0.55;0.25;;;16.40;99.90;;;;;;4698243;30;20534;-86
2022/07/26 20:18:27;;;;;;;4.07;0.30;;;16.30;99.90;;;;;;4695112;30;20403;-86
2022/07/26 20:21:06;;;;;;;1.85;0.20;;;16.80;99.90;;;;;;4708838;30;20638;-88
2022/07/26 20:23:50;;;;;;;1.58;0.20;;;16.20;99.90;;;;;;4705286;30;20095;-87
2022/07/26 20:34:34;;;;;;;0.20;0.10;;;16.30;99.90;;;;;;5351688;24;20057;-88
2022/07/26 20:37:53;;;;;;;0.40;0.20;;;16.20;99.90;;;;;;4658506;30;20066;-86
2022/07/26 20:40:27;;;;;;;0.85;0.10;;;16.90;99.90;;;;;;4598576;31;20415;-86
2022/07/26 20:43:20;;;;;;;;;;;;;;;;;;;;;
2022/07/26 20:47:05;;;;;;;;;;;;;;;;;;;;;
2022/07/26 20:50:10;;;;;;;;;;;;;;;;;;;;;
2022/07/26 20:52:59;;;;;;;1.08;0.20;;;16.10;99.90;;;;;;4556691;31;20161;-85
2022/07/26 20:58:46;;;;;;;0.93;0.10;;;16.00;99.90;;;;;;4576466;31;20061;-86
2022/07/26 21:01:18;;;;;;;1.05;0.35;;;16.00;99.90;;;;;;4565857;31;20163;-87
2022/07/26 21:27:44;;;;;;;;;;;;;;;;;;;;;
2022/07/26 21:49:11;;;;;;;0.28;0.20;;;15.60;99.90;;;;;;4645394;30;20093;-86
2022/07/26 21:52:33;;;;;;;0.10;0.10;;;15.10;99.90;;;;;;4630504;30;20063;-86
2022/07/26 21:56:01;;;;;;;;;;;;;;;;;;;;;
2022/07/26 21:59:27;;;;;;;;;;;;;;;;;;;;;
2022/07/26 22:30:31;;;;;;;;;;;;;;;;;;;;;
2022/07/26 22:58:19;;;;;;;1.98;0.30;;;14.80;99.90;;;;;;4618293;27;15205526;-86
2022/07/26 23:04:31;;;;;;;0.88;0.28;;;14.80;99.90;;;;;;5111460;27;20409;-86
2022/07/26 23:07:28;;;;;;;1.65;0.30;;;14.80;99.90;;;;;;5015517;28;20532;-87
2022/07/26 23:10:43;;;;;;;0.50;0.20;;;14.80;99.90;;;;;;5032122;28;20144;-86
2022/07/26 23:13:41;;;;;;;1.25;0.35;;;14.70;99.90;;;;;;5049540;28;20048;-86
2022/07/26 23:16:21;;;;;;;2.40;0.32;;;14.80;99.90;;;;;;5030711;28;20057;-86
2022/07/26 23:19:18;;;;;;;1.50;0.20;;;15.00;99.90;;;;;;5009116;28;20538;-86
2022/07/26 23:22:13;;;;;;;1.75;0.30;;;14.80;99.90;;;;;;5046905;28;20495;-87
2022/07/26 23:25:16;;;;;;;;;;;;;;;;;;;;;
2022/07/26 23:31:14;;;;;;;1.33;0.20;;;15.10;99.90;;;;;;5029669;28;20056;-86
2022/07/26 23:33:46;;;;;;;0.93;0.30;;;15.00;99.90;;;;;;5030249;28;20132;-86
2022/07/26 23:36:12;;;;;;;1.55;0.73;;;15.00;99.90;;;;;;5029610;28;20492;-86
2022/07/26 23:38:45;;;;;;;2.53;0.20;;;15.00;99.90;;;;;;5030167;28;20199;-87
2022/07/26 23:41:13;;;;;;;1.15;0.28;;;15.00;99.90;;;;;;5042656;28;20049;-86
2022/07/26 23:43:39;;;;;;;0.60;0.28;;;15.00;99.90;;;;;;5077787;27;20055;-86
2022/07/26 23:46:19;;;;;;;0.32;0.10;;;14.90;99.90;;;;;;5130925;27;20046;-86
2022/07/26 23:48:45;;;;;;;1.30;0.20;;;15.00;99.90;;;;;;5128261;27;20084;-86
2022/07/26 23:51:51;;;;;;;1.75;0.20;;;15.00;99.90;;;;;;5143065;27;20047;-86
2022/07/26 23:58:20;;;;;;;3.92;1.08;;;15.00;99.90;;;;;;5121908;27;20058;-86
